Adam McKennie

Chefscout - Houston Dynamo
19 Aug 2027
Donnerstag
Verarbeitung

Persönlichkeit

Anpassungsfähigkeit (19) Ehrgeiz (7) Kontroverse (14) Loyalität (9) Druck (7) Professionalität (9) Fairness (9) Temperament (10)

Profil

Trainerstil Demokratisch
Lizenz Kontinentale Pro
Entschlossenheit 9
Menschenführung 7
Motivation 7
Disziplin 4
Arbeitszufriedenheit
100%
Ermüdung
0%
Rolle Chefscout
Gehalt 48.5K p/W
Vertrag 14.03.2028

Leistung

Verhalten Gut
Trainingseffektivität
38%
Spielerentwicklung
55%
Verletzungsprävention
50%
Taktische Umsetzung
55%

Letzte Ereignisse

Nahm an einer Scouting-Besprechung teil jetzt
Empfahl ein Transferziel jetzt
Empfahl ein Transferziel jetzt
Empfahl ein Transferziel jetzt
Empfahl ein Transferziel 7T her
Empfahl ein Transferziel 7T her
Empfahl ein Transferziel 7T her
Empfahl ein Transferziel 7T her

Aktuell beobachtet

133
Spieler Verein Status Fähigkeit Vertrauen Beobachtet Zuletzt beobachtet Letzte Stimme
Aaron Collins Milton Keynes Dons Verloren 121 / 114 40% 3 22.07.2027 -
Mathias Jørgensen Blackburn Rovers Verloren 115 / 123 40% 2 22.07.2027 -
Joaquín Valiente FC Dallas Aktiv 116 / 111 48% 1 19.07.2027 -
Joe Gelhardt Hull City Verloren 149 / 125 40% 2 12.07.2027 -
Christ Inao Oulaï Fiorentina Verloren 120 / 152 40% 3 08.07.2027 -
Ibrahim Sabiu Bendel Insurance Aktiv 84 / 97 40% 2 08.07.2027 -
Razvan Mitrita San Diego Football Club Aktiv 118 / 120 66% 1 08.07.2027 Befürworten
Keagan Tau Ajax Cape Town Aktiv 92 / 97 40% 3 06.07.2027 -
Aune Heggebø West Bromwich Albion Verloren 137 / 118 40% 2 06.07.2027 -
Peter Shalulile Mamelodi Sundowns Verloren 152 / 120 40% 5 06.07.2027 -
Matías Gómez Granada Verhandlung 101 / 126 40% 2 06.07.2027 -
Joel McGregor Swindon Town Aktiv 97 / 100 40% 3 04.07.2027 -
Sam Nombe Milton Keynes Dons Aktiv 96 / 123 40% 2 02.07.2027 -
Mees Rijks Bristol Rovers Aktiv 96 / 105 40% 3 30.06.2027 -
Mohamed-Ali Cho Hull City Aktiv 155 / 145 40% 5 30.06.2027 -
Caleb Yirenkyi Coventry City Aktiv 148 / 154 40% 2 29.06.2027 -
Will Evans Mansfield Town Aktiv 116 / 96 40% 1 29.06.2027 -
Jan Bürger Gillingham Aktiv 117 / 116 40% 1 29.06.2027 -
Juan Giménez Celta Aktiv 122 / 127 40% 2 27.06.2027 -
Lewis Morgan SuperSport United Aktiv 149 / 120 40% 3 27.06.2027 -
Lorent Tolaj Plymouth Argyle Aktiv 131 / 121 40% 4 27.06.2027 -
Bradley Fink Wycombe Wanderers Aktiv 121 / 111 40% 2 23.06.2027 -
Callum Lang Preston Aktiv 120 / 114 40% 1 23.06.2027 -
Marvelous Freedom Ikorodu City Aktiv 107 / 84 40% 1 21.06.2027 -
Ernie Weaver AFC Wimbledon Aktiv 104 / 124 40% 1 21.06.2027 -
Richard Koné Queens Park Rangers Aktiv 140 / 129 40% 1 17.06.2027 -
George Hirst Stoke City Aktiv 141 / 127 40% 3 16.06.2027 -
Riley Owen Trento Aktiv 104 / 110 40% 3 15.06.2027 -
Hany Mukhtar Spezia Aktiv 157 / 137 40% 2 15.06.2027 -
Zian Flemming Ipswich Town Aktiv 150 / 123 40% 2 15.06.2027 -
Ezra Mayers West Ham United Aktiv 135 / 129 40% 1 14.06.2027 -
Joel Ezra Enyimba Aktiv 91 / 93 40% 1 14.06.2027 -
Stephen Humphrys Bradford City Aktiv 92 / 118 40% 2 09.06.2027 -
Elijah Adebayo Luton Town Aktiv 127 / 130 40% 1 09.06.2027 -
Marezi Portsmouth Aktiv 131 / 127 40% 1 07.06.2027 -
David Damboama El-Kanemi Warriors Aktiv 72 / 101 40% 1 06.06.2027 -
Fuzy Taylor Medeama Aktiv 68 / 95 40% 1 05.06.2027 -
Mpho Khethang AS Police Aktiv 91 / 96 40% 1 05.06.2027 -
Edwin Asamoah Berekum Chelsea Aktiv 93 / 94 40% 1 04.06.2027 -
Ibrahim Maza Bayer Leverkusen Aktiv 132 / 142 40% 2 03.06.2027 -
Morgan Whittaker Middlesbrough Aktiv 144 / 139 40% 2 01.06.2027 -
Bertrand Traoré Sunderland Aktiv 135 / 142 40% 2 30.05.2027 -
Davide Bartesaghi AC Milan Aktiv 121 / 140 40% 2 29.05.2027 -
Luis Vázquez Birmingham Aktiv 146 / 119 40% 2 29.05.2027 -
Percy Jali Free State Stars Aktiv 107 / 111 40% 1 29.05.2027 -
Ilyas Ansah Hull City Aktiv 120 / 129 40% 2 24.05.2027 -
Dom Ballard Leyton Orient Aktiv 138 / 113 40% 3 23.05.2027 -
Shayne Lavery Cambridge United Aktiv 121 / 98 40% 1 21.05.2027 -
Iwan Morgan Grimsby Town Aktiv 106 / 109 40% 1 19.05.2027 -
Aaron Drinan Swindon Town Aktiv 102 / 96 40% 1 18.05.2027 -
Will Lankshear Middlesbrough Aktiv 107 / 122 40% 3 16.05.2027 -
Oli McBurnie Hull City Aktiv 129 / 138 40% 1 15.05.2027 -
Tom Cannon Sheffield United Aktiv 118 / 126 40% 2 14.05.2027 -
Patson Daka Leicester City Aktiv 121 / 126 40% 2 09.05.2027 -
Marcus Browne AFC Wimbledon Aktiv 92 / 103 40% 1 07.05.2027 -
Tyreece Campbell Charlton Athletic Aktiv 104 / 117 40% 1 06.05.2027 -
Josh Windass Wrexham Aktiv 118 / 130 40% 1 06.05.2027 -
Bojan Radulović Huddersfield Town Aktiv 102 / 117 40% 1 05.05.2027 -
Kwame Opoku Asante Kotoko Aktiv 99 / 98 40% 2 13.04.2027 -
Themba Ngcobo SuperSport United Aktiv 135 / 118 40% 1 08.04.2027 -
Robert Mizo Ashanti Gold Aktiv 95 / 115 40% 1 17.03.2027 -
Evidence Makgopa Orlando Pirates Aktiv 124 / 105 40% 1 17.03.2027 -
Ryan Porteous Los Angeles Football Club Aktiv 113 / 110 48% 1 08.03.2027 -
Bradley Phiri LNZ Aktiv 112 / 112 66% 1 01.03.2027 Befürworten
Pablo Solari Galatasaray Aktiv 128 / 128 68% 1 14.02.2027 Befürworten
Khama Dolly Utrecht Verhandlung 123 / 124 67% 1 14.02.2027 Befürworten
Marquinhos Spartak Moscow Aktiv 128 / 128 66% 1 14.02.2027 Befürworten
Lucas Bergvall Tottenham Aktiv 164 / 146 40% 1 14.02.2027 -
Kazunari Kita Real Sociedad Aktiv 89 / 111 40% 1 14.02.2027 -
Othmane Maamma Watford Aktiv 130 / 126 40% 2 11.02.2027 -
Scott Twine Bristol City Aktiv 138 / 123 40% 1 11.02.2027 -
Jason Knight Bristol City Aktiv 123 / 123 40% 1 07.02.2027 -
Daniel Kyerewaa Reading Aktiv 97 / 104 40% 2 06.02.2027 -
Paris Maghoma Norwich City Aktiv 128 / 133 40% 1 06.02.2027 -
Florentino Luís Ipswich Town Aktiv 142 / 148 40% 2 05.02.2027 -
David Turnbull Cardiff City Aktiv 121 / 115 40% 1 05.02.2027 -
Mohamed Belloumi Hull City Aktiv 139 / 145 40% 1 04.02.2027 -
Ali Ahmed Norwich City Aktiv 132 / 130 40% 1 04.02.2027 -
Tom Fellows Southampton Aktiv 153 / 138 40% 1 03.02.2027 -
Cian Ashford Cardiff City Aktiv 136 / 114 40% 2 02.02.2027 -
Max Bird Birmingham Aktiv 112 / 121 40% 1 02.02.2027 -
Marcelo Allende Mamelodi Sundowns Aktiv 142 / 139 40% 6 01.02.2027 -
Tomáš Rigo Stoke City Aktiv 134 / 125 40% 1 31.01.2027 -
Jack Rudoni Coventry City Aktiv 118 / 142 40% 1 31.01.2027 -
Matvey Kislyak CSKA Moscow Aktiv 142 / 142 40% 2 29.01.2027 -
Jack McGlynn Stoke City Aktiv 128 / 144 40% 1 29.01.2027 -
Christos Mouzakitis Hull City Aktiv 135 / 127 40% 1 29.01.2027 -
Josh Smith Accrington Stanley Aktiv 83 / 89 40% 1 27.01.2027 -
Tommy Conway Middlesbrough Aktiv 120 / 130 40% 1 23.01.2027 -
Carlos Vicente Birmingham Aktiv 131 / 138 40% 1 23.01.2027 -
Kwadwo Baah Watford Aktiv 139 / 138 40% 1 22.01.2027 -
Joseph Wakaso Wa All Stars Aktiv 98 / 98 40% 2 21.01.2027 -
Nathan Ordaz Metalist Aktiv 98 / 122 40% 1 20.01.2027 -
Giacomo Raspadori Atalanta Aktiv 134 / 140 40% 1 19.01.2027 -
Thalente Mbatha Orlando Pirates Aktiv 110 / 121 40% 2 18.01.2027 -
Josh King Chelsea Aktiv 146 / 143 40% 1 18.01.2027 -
Jesús Rodríguez Como Aktiv 154 / 153 40% 1 17.01.2027 -
Reda Khadra Qarabag Aktiv 132 / 132 40% 3 15.01.2027 -
Ronwen Phiri Platinum Stars Aktiv 111 / 105 40% 2 14.01.2027 -
Jabu Mokone Bidvest Wits Aktiv 98 / 90 40% 1 13.01.2027 -
Daniel Vernattus Metalist Aktiv 83 / 107 40% 1 12.01.2027 -
Oswin Appollis Orlando Pirates Aktiv 130 / 120 40% 6 10.01.2027 -
Surprise Manthosi Polokwane City Aktiv 103 / 93 40% 1 09.01.2027 -
Yussif Saidu Zaragoza Aktiv 105 / 130 40% 1 09.01.2027 -
Cemran Dansin Orlando Pirates Aktiv 91 / 109 40% 1 08.01.2027 -
Hlompho Lorch Ajax Cape Town Aktiv 92 / 96 40% 3 05.01.2027 -
Christian Krasnodar Aktiv 135 / 130 40% 5 04.01.2027 -
Romano Schmid Frosinone Aktiv 134 / 131 40% 1 03.01.2027 -
Mduduzi Shabalala Kaizer Chiefs Aktiv 126 / 124 40% 2 31.12.2026 -
Williams Manyama SuperSport United Aktiv 134 / 122 40% 3 25.12.2026 -
Rubens Dinamo Moscow Aktiv 132 / 135 40% 1 25.12.2026 -
Max Conway Bolton Wanderers Aktiv 103 / 123 40% 1 24.12.2026 -
Aidomo Emakhu Oxford United Aktiv 124 / 110 40% 2 19.12.2026 -
Tomás O'Connor Gimnasia y Esgrima Aktiv 126 / 127 40% 1 09.12.2026 -
Bongani Modiba Black Aces Aktiv 104 / 112 40% 2 02.12.2026 -
Mandla Erasmus SuperSport United Aktiv 139 / 110 40% 5 24.11.2026 -
Aarón Molinas Defensa y Justicia Aktiv 133 / 130 40% 1 24.11.2026 -
Siyanda Ndlovu Bloemfontein Celtic Aktiv 96 / 112 40% 2 21.11.2026 -
Angelo Gattermayer Wolfsberger AC Aktiv 132 / 118 40% 1 21.11.2026 -
Jack Currie Oxford United Aktiv 130 / 118 40% 1 08.11.2026 -
Tshepang Moremi Orlando Pirates Aktiv 101 / 108 40% 1 30.10.2026 -
Conrad Wallem Austria Wien Aktiv 135 / 138 40% 1 27.10.2026 -
George Earthy Reading Aktiv 113 / 127 40% 1 26.10.2026 -
Iván Angulo Orlando City Aktiv 123 / 128 40% 1 25.10.2026 -
Nicolás Fernández Mercau Shakhtar Aktiv 147 / 125 40% 1 23.10.2026 -
Kelvin Yeboah Minnesota United FC Aktiv 122 / 127 40% 1 17.10.2026 -
Caolan Boyd-Munce Wycombe Wanderers Aktiv 97 / 126 40% 1 16.10.2026 -
João Gomes Aston Villa Aktiv 160 / 149 40% 1 07.10.2026 -
Onuorah Onyedika Kun Khalifat Aktiv 70 / 74 40% 1 14.09.2026 -
Harrison McMahon Chelsea Aktiv 106 / 104 40% 1 13.09.2026 -
Onyia Henry Bendel Insurance Aktiv 99 / 93 40% 1 12.09.2026 -
Issa Yusuf Shooting Stars Aktiv 69 / 80 40% 1 11.09.2026 -
Keagan Phiri Platinum Stars Aktiv 106 / 97 40% 1 09.09.2026 -